Time;durP1;ratioP1;P1;durP2;ratioP2;P2;SDS_P1;SDS_P2;PMS_P1;PMS_P2;Temp;Humidity;BMP_temperature;BMP_pressure;BME280_temperature;BME280_humidity;BME280_pressure;Samples;Min_cycle;Max_cycle;Signal;HPM_P1;HPM_P2
2023/11/07 00:02:26;;;;;;;2.80;0.88;;;14.50;90.00;;;;;;5037628;28;20035;-82
2023/11/07 00:04:52;;;;;;;2.30;0.60;;;14.50;90.00;;;;;;5037017;28;20079;-83
2023/11/07 00:07:18;;;;;;;1.30;0.70;;;14.50;89.80;;;;;;5037107;28;20025;-85
2023/11/07 00:09:43;;;;;;;1.10;0.70;;;14.60;89.70;;;;;;5036818;28;20028;-84
2023/11/07 00:12:09;;;;;;;2.10;0.80;;;14.60;89.70;;;;;;5036809;28;20446;-84
2023/11/07 00:14:35;;;;;;;1.75;0.77;;;14.60;89.80;;;;;;5036518;28;20388;-84
2023/11/07 00:17:01;;;;;;;2.53;0.75;;;14.50;89.80;;;;;;5036843;28;20025;-85
2023/11/07 00:19:27;;;;;;;2.80;0.80;;;14.50;89.80;;;;;;5054321;28;20100;-84
2023/11/07 00:21:52;;;;;;;1.55;0.70;;;14.50;89.90;;;;;;5036536;28;20052;-82
2023/11/07 00:24:18;;;;;;;1.67;0.80;;;14.50;89.90;;;;;;5035376;28;20032;-84
2023/11/07 00:26:43;;;;;;;1.77;0.65;;;14.50;90.00;;;;;;5036400;28;20052;-84
2023/11/07 00:29:11;;;;;;;2.13;0.80;;;14.50;90.00;;;;;;5054121;28;20021;-85
2023/11/07 00:31:36;;;;;;;1.63;0.65;;;14.50;90.00;;;;;;5036330;28;20435;-85
2023/11/07 00:34:02;;;;;;;2.22;0.77;;;14.50;90.00;;;;;;5036374;28;20056;-83
2023/11/07 00:36:27;;;;;;;1.23;0.60;;;14.50;90.10;;;;;;5036175;28;20029;-84
2023/11/07 00:38:53;;;;;;;1.75;0.80;;;14.50;90.10;;;;;;5036122;28;20025;-84
2023/11/07 00:41:19;;;;;;;2.28;0.88;;;14.40;90.10;;;;;;5036432;28;20025;-85
2023/11/07 00:43:47;;;;;;;2.15;1.10;;;14.40;90.10;;;;;;5054303;28;20364;-85
2023/11/07 00:46:12;;;;;;;2.20;0.77;;;14.40;90.10;;;;;;5054572;28;20028;-84
2023/11/07 00:48:38;;;;;;;1.63;0.73;;;14.40;90.20;;;;;;5035952;28;20025;-84
2023/11/07 00:51:03;;;;;;;0.75;0.60;;;14.40;90.10;;;;;;5054218;28;20396;-83
2023/11/07 00:53:29;;;;;;;1.20;0.68;;;14.40;90.20;;;;;;5035990;28;20162;-84
2023/11/07 00:55:54;;;;;;;2.00;0.70;;;14.40;90.20;;;;;;5035893;28;20110;-85
2023/11/07 00:58:23;;;;;;;1.02;0.60;;;14.40;90.20;;;;;;5035863;28;20021;-84
2023/11/07 01:00:49;;;;;;;2.15;0.90;;;14.40;90.20;;;;;;5053804;28;20031;-85
2023/11/07 01:03:14;;;;;;;2.10;0.70;;;14.40;90.20;;;;;;5036211;28;20447;-83
2023/11/07 01:05:40;;;;;;;2.50;1.17;;;14.40;90.20;;;;;;5053978;28;20036;-83
2023/11/07 01:08:05;;;;;;;1.38;0.80;;;14.40;90.20;;;;;;5035747;28;20168;-84
2023/11/07 01:10:32;;;;;;;1.48;0.68;;;14.40;90.20;;;;;;5035710;28;20029;-84
2023/11/07 01:12:59;;;;;;;1.08;0.68;;;14.40;90.20;;;;;;5053721;28;20021;-83
2023/11/07 01:15:25;;;;;;;1.45;0.70;;;14.40;90.20;;;;;;5036147;28;20025;-84
2023/11/07 01:17:51;;;;;;;1.25;0.70;;;14.40;90.20;;;;;;5053689;28;20032;-83
2023/11/07 01:20:17;;;;;;;0.65;0.50;;;14.40;90.20;;;;;;5035474;28;20025;-84
2023/11/07 01:22:44;;;;;;;1.23;0.80;;;14.40;90.20;;;;;;5035645;28;20083;-83
2023/11/07 01:25:10;;;;;;;2.45;0.80;;;14.50;90.20;;;;;;5036005;28;20021;-83
2023/11/07 01:27:36;;;;;;;1.90;0.70;;;14.50;90.10;;;;;;5035589;28;20025;-84
2023/11/07 01:30:04;;;;;;;1.95;0.60;;;14.50;90.10;;;;;;5035289;28;20467;-84
2023/11/07 01:32:30;;;;;;;2.28;0.80;;;14.50;90.00;;;;;;5035658;28;20096;-84
2023/11/07 01:34:56;;;;;;;1.20;0.70;;;14.50;90.00;;;;;;5035630;28;20056;-83
2023/11/07 01:37:21;;;;;;;1.75;0.75;;;14.50;89.90;;;;;;5039611;28;20073;-83
2023/11/07 01:39:47;;;;;;;2.63;0.80;;;14.50;89.90;;;;;;5039547;28;20025;-84
2023/11/07 01:42:12;;;;;;;1.23;0.52;;;14.50;89.90;;;;;;5057717;28;20033;-83
2023/11/07 01:44:49;;;;;;;1.55;0.65;;;14.50;89.90;;;;;;5039641;28;20108;-85
2023/11/07 01:47:16;;;;;;;0.98;0.50;;;14.50;90.00;;;;;;5039559;28;20510;-84
2023/11/07 01:49:42;;;;;;;1.60;0.57;;;14.50;90.00;;;;;;5039217;28;20025;-83
2023/11/07 01:52:08;;;;;;;1.13;0.60;;;14.50;90.00;;;;;;5038816;28;20042;-83
2023/11/07 01:54:34;;;;;;;1.75;0.63;;;14.40;90.00;;;;;;5039368;28;20479;-83
2023/11/07 01:57:00;;;;;;;3.33;0.80;;;14.40;90.10;;;;;;5039206;28;20047;-83
2023/11/07 01:59:26;;;;;;;1.38;0.63;;;14.40;90.10;;;;;;5056936;28;20046;-83
2023/11/07 02:01:58;;;;;;;1.80;0.60;;;14.40;90.10;;;;;;5057205;28;20104;-84
2023/11/07 02:04:24;;;;;;;;;;;14.40;90.10;;;;;;5039528;28;20506;-84
2023/11/07 02:06:50;;;;;;;1.40;0.60;;;14.40;90.20;;;;;;5039055;28;19950;-84
2023/11/07 02:09:16;;;;;;;2.58;0.73;;;14.40;90.20;;;;;;5039252;28;20514;-84
2023/11/07 02:11:41;;;;;;;1.55;0.80;;;14.40;90.20;;;;;;5038634;28;20035;-83
2023/11/07 02:14:08;;;;;;;2.50;0.70;;;14.40;90.20;;;;;;5038657;28;20028;-84
2023/11/07 02:16:34;;;;;;;2.00;0.70;;;14.40;90.20;;;;;;5038759;28;20025;-83
2023/11/07 02:18:59;;;;;;;1.98;0.60;;;14.40;90.20;;;;;;5056704;28;20029;-83
2023/11/07 02:21:28;;;;;;;1.02;0.47;;;14.40;90.20;;;;;;5038630;28;20498;-84
2023/11/07 02:23:53;;;;;;;1.13;0.57;;;14.40;90.20;;;;;;5038675;28;20055;-84
2023/11/07 02:26:19;;;;;;;1.73;0.50;;;14.40;90.20;;;;;;5038390;28;20021;-84
2023/11/07 02:28:45;;;;;;;2.08;0.82;;;14.40;90.20;;;;;;5056385;28;20422;-84
2023/11/07 02:31:11;;;;;;;0.98;0.60;;;14.40;90.20;;;;;;5038389;28;20025;-84
2023/11/07 02:33:37;;;;;;;1.52;0.65;;;14.40;90.20;;;;;;5056365;28;20013;-84
2023/11/07 02:36:03;;;;;;;1.40;0.63;;;14.40;90.20;;;;;;5038454;28;20021;-84
2023/11/07 02:38:29;;;;;;;1.60;0.70;;;14.40;90.20;;;;;;5056031;28;20047;-84
2023/11/07 02:40:55;;;;;;;0.80;0.57;;;14.40;90.20;;;;;;5056423;28;20538;-84
2023/11/07 02:43:20;;;;;;;0.93;0.60;;;14.40;90.20;;;;;;5038126;28;20123;-84
2023/11/07 02:45:46;;;;;;;1.05;0.60;;;14.40;90.30;;;;;;5038138;28;20067;-83
2023/11/07 02:48:11;;;;;;;1.60;0.70;;;14.40;90.20;;;;;;5055029;28;20021;-83
2023/11/07 02:50:37;;;;;;;1.23;0.70;;;14.40;90.20;;;;;;5037894;28;20095;-83
2023/11/07 02:53:02;;;;;;;1.85;0.90;;;14.40;90.20;;;;;;5056438;28;20028;-84
2023/11/07 02:55:28;;;;;;;0.82;0.50;;;14.50;90.20;;;;;;5038009;28;20405;-84
2023/11/07 02:57:54;;;;;;;2.05;0.80;;;14.50;90.10;;;;;;5055659;28;20032;-83
2023/11/07 03:00:19;;;;;;;1.48;0.70;;;14.50;90.00;;;;;;5056080;28;20486;-84
2023/11/07 03:02:45;;;;;;;1.65;0.70;;;14.50;90.00;;;;;;5037597;28;20024;-84
2023/11/07 03:05:12;;;;;;;1.42;0.60;;;14.50;89.80;;;;;;5037649;28;20108;-84
2023/11/07 03:07:38;;;;;;;1.67;0.60;;;14.50;89.80;;;;;;5037828;28;20024;-85
2023/11/07 03:10:06;;;;;;;0.98;0.52;;;14.50;89.80;;;;;;5034631;28;20088;-84
2023/11/07 03:12:32;;;;;;;1.85;0.70;;;14.50;89.90;;;;;;5054513;28;20075;-84
2023/11/07 03:14:57;;;;;;;1.33;0.60;;;14.50;89.90;;;;;;5037718;28;20048;-82
2023/11/07 03:17:24;;;;;;;2.22;0.75;;;14.50;90.00;;;;;;5055705;28;20025;-84
2023/11/07 03:19:52;;;;;;;2.30;0.65;;;14.40;90.00;;;;;;5055568;28;20040;-84
2023/11/07 03:22:19;;;;;;;2.38;0.73;;;14.40;90.10;;;;;;5037534;28;20020;-84
2023/11/07 03:24:45;;;;;;;1.40;0.60;;;14.40;90.00;;;;;;5037882;28;20471;-84
2023/11/07 03:27:11;;;;;;;2.05;0.68;;;14.40;90.00;;;;;;5055732;28;20025;-84
2023/11/07 03:29:37;;;;;;;1.08;0.63;;;14.40;90.10;;;;;;5037277;28;20048;-83
2023/11/07 03:32:03;;;;;;;2.28;0.73;;;14.40;90.10;;;;;;5037303;28;20514;-83
2023/11/07 03:34:29;;;;;;;2.15;0.75;;;14.40;90.10;;;;;;5037893;28;20060;-84
2023/11/07 03:36:54;;;;;;;1.63;0.63;;;14.40;90.10;;;;;;5037310;28;20021;-84
2023/11/07 03:39:20;;;;;;;0.93;0.50;;;14.40;90.10;;;;;;5037122;28;20024;-84
2023/11/07 03:41:46;;;;;;;2.53;0.90;;;14.40;90.20;;;;;;5055309;28;20025;-84
2023/11/07 03:44:12;;;;;;;2.13;0.70;;;14.40;90.20;;;;;;5055419;28;20025;-84
2023/11/07 03:46:37;;;;;;;1.42;0.70;;;14.30;90.10;;;;;;5037195;28;20032;-83
2023/11/07 03:49:03;;;;;;;1.52;0.68;;;14.40;90.20;;;;;;5037054;28;20051;-84
2023/11/07 03:51:29;;;;;;;1.00;0.65;;;14.30;90.10;;;;;;5054878;28;20495;-84
2023/11/07 03:53:54;;;;;;;1.40;0.70;;;14.40;90.20;;;;;;5068845;22;20105;-80
2023/11/07 03:56:20;;;;;;;1.77;0.73;;;14.30;90.20;;;;;;5020932;28;20025;-80
2023/11/07 03:58:45;;;;;;;2.00;0.77;;;15.20;90.40;;;;;;5039119;28;20021;-80
2023/11/07 04:01:11;;;;;;;1.23;0.57;;;14.30;90.20;;;;;;5039355;28;20042;-80
2023/11/07 04:03:36;;;;;;;1.30;0.60;;;14.30;90.10;;;;;;5021262;28;20025;-80
2023/11/07 04:06:02;;;;;;;2.72;0.90;;;14.40;90.20;;;;;;5021735;28;20389;-80
2023/11/07 04:08:28;;;;;;;1.92;0.68;;;14.30;90.10;;;;;;5038953;28;20033;-80
2023/11/07 04:10:53;;;;;;;1.33;0.70;;;14.30;90.20;;;;;;5021468;28;20060;-80
2023/11/07 04:13:20;;;;;;;1.75;0.65;;;14.40;90.20;;;;;;5021140;28;20523;-80
2023/11/07 04:15:45;;;;;;;1.13;0.55;;;14.40;90.20;;;;;;5020266;28;20108;-80
2023/11/07 04:18:11;;;;;;;1.95;0.70;;;14.40;90.20;;;;;;5020407;28;20068;-80
2023/11/07 04:20:38;;;;;;;1.55;0.70;;;14.40;90.20;;;;;;5019775;28;20030;-80
2023/11/07 04:23:04;;;;;;;1.20;0.55;;;14.40;90.20;;;;;;5020067;28;20025;-80
2023/11/07 04:25:30;;;;;;;1.50;0.70;;;14.40;90.10;;;;;;5036939;28;20036;-80
2023/11/07 04:27:56;;;;;;;1.75;0.63;;;14.40;90.00;;;;;;5036450;28;20037;-80
2023/11/07 04:30:22;;;;;;;1.52;0.70;;;14.40;90.00;;;;;;5033662;28;20033;-79
2023/11/07 04:32:48;;;;;;;1.90;0.60;;;14.50;89.90;;;;;;5023209;28;20025;-81
2023/11/07 04:35:15;;;;;;;1.70;0.70;;;14.50;89.80;;;;;;5017281;28;20438;-81
2023/11/07 04:37:42;;;;;;;0.77;0.70;;;14.50;89.80;;;;;;5017376;28;20025;-80
2023/11/07 04:40:08;;;;;;;1.02;0.60;;;14.50;89.80;;;;;;5016957;28;20753;-79
2023/11/07 04:42:34;;;;;;;1.38;0.70;;;14.50;89.90;;;;;;5016452;28;20053;-80
2023/11/07 04:45:00;;;;;;;2.10;0.63;;;14.50;89.90;;;;;;5016654;28;20275;-80
2023/11/07 04:47:25;;;;;;;1.80;0.88;;;14.40;90.00;;;;;;5016118;28;20092;-80
2023/11/07 04:49:51;;;;;;;2.05;0.60;;;14.40;90.00;;;;;;5016700;28;20442;-80
2023/11/07 04:52:16;;;;;;;2.97;0.70;;;14.40;90.00;;;;;;5034226;28;20435;-80
2023/11/07 04:54:42;;;;;;;1.80;0.70;;;14.40;90.00;;;;;;5016150;28;20052;-81
2023/11/07 04:57:08;;;;;;;0.82;0.57;;;14.40;90.10;;;;;;5032930;28;20376;-78
2023/11/07 04:59:34;;;;;;;1.73;0.70;;;14.40;90.10;;;;;;5033891;28;20480;-81
2023/11/07 05:02:01;;;;;;;0.95;0.68;;;14.40;90.10;;;;;;5034146;28;20041;-78
2023/11/07 05:04:27;;;;;;;2.13;0.80;;;14.40;90.10;;;;;;5015940;28;20040;-79
2023/11/07 05:06:53;;;;;;;3.08;0.85;;;14.40;90.20;;;;;;5016861;28;20025;-80
2023/11/07 05:09:19;;;;;;;1.40;0.68;;;14.40;90.20;;;;;;5017464;28;20026;-80
2023/11/07 05:11:44;;;;;;;1.90;0.70;;;14.30;90.10;;;;;;5016392;28;20033;-79
2023/11/07 05:14:10;;;;;;;1.05;0.68;;;14.40;90.20;;;;;;5019057;28;20029;-79
2023/11/07 05:16:41;;;;;;;1.13;0.50;;;14.30;90.20;;;;;;5021074;28;20036;-81
2023/11/07 05:19:11;;;;;;;1.63;0.68;;;14.40;90.20;;;;;;5022123;28;20151;-81
2023/11/07 05:21:37;;;;;;;1.55;0.80;;;14.30;90.20;;;;;;5022209;28;20026;-81
2023/11/07 05:24:04;;;;;;;1.25;0.52;;;14.30;90.20;;;;;;5040297;28;20521;-81
2023/11/07 05:26:29;;;;;;;2.10;0.73;;;14.40;90.20;;;;;;5021386;28;20036;-81
2023/11/07 05:28:55;;;;;;;0.95;0.57;;;14.30;90.20;;;;;;5021781;28;20022;-81
2023/11/07 05:31:21;;;;;;;1.55;0.70;;;14.30;90.20;;;;;;5039039;28;20033;-80
2023/11/07 05:33:46;;;;;;;1.70;0.70;;;14.30;90.20;;;;;;5027018;28;20503;-81
2023/11/07 05:36:15;;;;;;;1.42;0.65;;;14.30;90.20;;;;;;5032292;28;20030;-81
2023/11/07 05:38:43;;;;;;;1.17;0.60;;;14.30;90.20;;;;;;5029452;28;20105;-82
2023/11/07 05:41:09;;;;;;;1.40;0.70;;;14.30;90.20;;;;;;5047822;28;20025;-81
2023/11/07 05:43:35;;;;;;;0.82;0.60;;;14.30;90.20;;;;;;5031574;28;20199;-82
2023/11/07 05:46:00;;;;;;;0.80;0.50;;;14.30;90.20;;;;;;5047505;28;20040;-80
2023/11/07 05:48:26;;;;;;;2.55;0.80;;;14.30;90.20;;;;;;5031068;28;20029;-81
2023/11/07 05:50:51;;;;;;;1.85;0.60;;;14.40;90.20;;;;;;5030927;28;20033;-81
2023/11/07 05:53:18;;;;;;;0.82;0.50;;;14.40;90.10;;;;;;5035410;28;20124;-82
2023/11/07 05:55:43;;;;;;;1.35;0.57;;;14.40;90.00;;;;;;5040417;28;20470;-81
2023/11/07 05:58:10;;;;;;;1.30;0.70;;;14.40;90.00;;;;;;5041340;28;20387;-80
2023/11/07 06:00:36;;;;;;;0.93;0.52;;;14.40;89.90;;;;;;5040793;28;20075;-80
2023/11/07 06:03:02;;;;;;;1.38;0.60;;;14.50;89.90;;;;;;5055837;28;20033;-81
2023/11/07 06:05:27;;;;;;;2.10;0.70;;;14.40;89.80;;;;;;5039009;28;20040;-80
2023/11/07 06:07:55;;;;;;;1.30;0.60;;;14.40;89.90;;;;;;5056479;28;20025;-82
2023/11/07 06:10:22;;;;;;;1.67;0.50;;;14.40;89.90;;;;;;5038862;28;20565;-80
2023/11/07 06:12:47;;;;;;;1.65;0.60;;;14.40;90.00;;;;;;5037606;28;20116;-80
2023/11/07 06:15:14;;;;;;;1.40;0.60;;;14.40;90.00;;;;;;5055857;28;20104;-81
2023/11/07 06:17:39;;;;;;;1.83;0.77;;;14.40;90.00;;;;;;5057950;28;20398;-79
2023/11/07 06:20:05;;;;;;;1.80;0.57;;;14.40;90.10;;;;;;5038880;28;20561;-80
2023/11/07 06:22:31;;;;;;;1.92;0.75;;;14.40;90.10;;;;;;5036386;28;20029;-78
2023/11/07 06:24:56;;;;;;;5.93;0.98;;;14.30;90.10;;;;;;5031235;28;20051;-78
2023/11/07 06:27:22;;;;;;;10.27;1.30;;;14.30;90.00;;;;;;5031172;28;20491;-79
2023/11/07 06:29:48;;;;;;;10.45;1.40;;;14.30;89.00;;;;;;5031438;28;20526;-77
2023/11/07 06:32:14;;;;;;;10.90;1.40;;;14.30;89.00;;;;;;5054586;28;20021;-81
2023/11/07 06:34:40;;;;;;;9.70;1.00;;;14.30;89.20;;;;;;5057687;28;20101;-78
2023/11/07 06:37:06;;;;;;;8.90;1.08;;;14.30;89.30;;;;;;5016541;28;20108;-81
2023/11/07 06:39:32;;;;;;;4.32;0.90;;;14.30;89.40;;;;;;5015943;28;20050;-81
2023/11/07 06:41:58;;;;;;;4.43;0.85;;;14.30;89.50;;;;;;4999810;28;20034;-81
2023/11/07 06:44:23;;;;;;;6.35;1.00;;;14.30;89.50;;;;;;4999318;28;20112;-80
2023/11/07 06:46:51;;;;;;;4.60;0.63;;;14.30;89.60;;;;;;4999533;28;20064;-80
2023/11/07 06:49:17;;;;;;;4.55;0.77;;;14.30;89.60;;;;;;5000627;28;20033;-80
2023/11/07 06:51:43;;;;;;;5.10;1.00;;;14.30;89.80;;;;;;5036945;28;20025;-80
2023/11/07 06:54:09;;;;;;;3.78;0.90;;;14.30;89.80;;;;;;5037686;28;20100;-81
2023/11/07 06:56:35;;;;;;;2.92;0.90;;;14.30;89.90;;;;;;5037222;28;20391;-81
2023/11/07 06:59:00;;;;;;;4.07;0.90;;;14.30;89.80;;;;;;5036679;28;20024;-81
2023/11/07 07:01:28;;;;;;;4.25;0.90;;;14.30;89.90;;;;;;5034640;28;20049;-81
2023/11/07 07:03:54;;;;;;;2.05;0.70;;;14.30;89.90;;;;;;5034636;28;20026;-81
2023/11/07 07:06:23;;;;;;;3.08;0.80;;;14.30;89.90;;;;;;5034522;28;20173;-81
2023/11/07 07:08:49;;;;;;;3.53;0.80;;;14.30;89.90;;;;;;5035975;28;20025;-80
2023/11/07 07:11:15;;;;;;;1.83;0.60;;;14.40;89.90;;;;;;5034497;28;20036;-80
2023/11/07 07:13:41;;;;;;;7.55;1.25;;;14.40;89.70;;;;;;5035155;28;20029;-80
2023/11/07 07:16:08;;;;;;;3.00;0.80;;;14.40;89.70;;;;;;5035584;28;20048;-80
2023/11/07 07:18:34;;;;;;;2.63;0.70;;;14.40;89.60;;;;;;5035436;28;20076;-81
2023/11/07 07:21:00;;;;;;;2.58;0.73;;;14.50;89.50;;;;;;5017754;28;20092;-80
2023/11/07 07:23:25;;;;;;;6.13;0.70;;;14.50;89.50;;;;;;5024470;28;20117;-81
2023/11/07 07:25:55;;;;;;;2.00;0.82;;;14.50;89.40;;;;;;5026955;28;20032;-81
2023/11/07 07:28:21;;;;;;;2.97;0.70;;;14.50;89.30;;;;;;5026491;28;20407;-81
2023/11/07 07:30:48;;;;;;;3.90;0.70;;;14.50;89.20;;;;;;5026660;28;20025;-82
2023/11/07 07:33:19;;;;;;;1.73;0.68;;;14.50;89.20;;;;;;5042858;28;20018;-81
2023/11/07 07:35:46;;;;;;;1.77;0.60;;;14.60;89.40;;;;;;5025795;28;20117;-81
2023/11/07 07:38:12;;;;;;;3.72;0.80;;;14.60;89.50;;;;;;5043035;28;20029;-81
2023/11/07 07:40:38;;;;;;;1.60;0.63;;;14.50;89.30;;;;;;5025135;28;20052;-81
2023/11/07 07:43:10;;;;;;;1.95;0.70;;;14.60;89.40;;;;;;5024741;28;20459;-81
2023/11/07 07:45:38;;;;;;;1.48;0.60;;;14.60;89.10;;;;;;5024646;28;20040;-81
2023/11/07 07:48:06;;;;;;;4.20;0.80;;;14.60;89.10;;;;;;5041409;28;20518;-81
2023/11/07 07:50:32;;;;;;;1.83;0.70;;;14.60;89.20;;;;;;5023303;28;20026;-81
2023/11/07 07:53:01;;;;;;;3.58;0.75;;;14.60;89.30;;;;;;5022860;28;20045;-81
2023/11/07 07:55:27;;;;;;;1.58;0.65;;;14.50;89.20;;;;;;5041362;28;20013;-81
2023/11/07 07:57:53;;;;;;;2.90;0.80;;;14.50;89.10;;;;;;5022479;28;20542;-81
2023/11/07 08:00:24;;;;;;;1.65;0.60;;;14.50;89.20;;;;;;5022403;28;20036;-81
2023/11/07 08:02:51;;;;;;;1.63;0.60;;;14.50;89.30;;;;;;5021570;28;20041;-81
2023/11/07 08:05:17;;;;;;;1.73;0.60;;;14.50;89.40;;;;;;5040393;28;20431;-81
2023/11/07 08:07:47;;;;;;;1.67;0.80;;;14.50;89.40;;;;;;5021504;28;20108;-81
2023/11/07 08:10:19;;;;;;;3.35;1.08;;;14.50;89.50;;;;;;5020429;28;20372;-81
2023/11/07 08:12:51;;;;;;;1.90;0.73;;;14.50;89.50;;;;;;5038719;28;20037;-81
2023/11/07 08:15:18;;;;;;;1.65;0.65;;;14.50;89.60;;;;;;5020437;28;20555;-81
2023/11/07 08:17:44;;;;;;;1.10;0.52;;;14.40;90.00;;;;;;5019824;28;20028;-81
2023/11/07 08:20:15;;;;;;;3.65;0.88;;;14.50;89.60;;;;;;5020212;28;20048;-81
2023/11/07 08:22:43;;;;;;;1.52;0.70;;;14.50;89.60;;;;;;5019918;28;20021;-80
2023/11/07 08:25:10;;;;;;;2.90;0.80;;;14.50;89.70;;;;;;5020052;28;20052;-80
2023/11/07 08:27:44;;;;;;;0.90;0.50;;;14.50;89.60;;;;;;5037457;28;20022;-80
2023/11/07 08:30:14;;;;;;;1.27;0.57;;;14.50;89.80;;;;;;5036971;28;20086;-81
2023/11/07 08:32:44;;;;;;;2.08;0.70;;;14.50;89.70;;;;;;5022988;28;20045;-81
2023/11/07 08:35:15;;;;;;;1.75;0.70;;;14.50;89.60;;;;;;5043484;28;20045;-81
2023/11/07 08:37:47;;;;;;;2.13;0.60;;;14.60;89.50;;;;;;5025418;28;20033;-81
2023/11/07 08:40:16;;;;;;;2.13;0.60;;;14.50;89.20;;;;;;5024447;28;20025;-81
2023/11/07 08:42:48;;;;;;;1.98;0.70;;;14.60;89.20;;;;;;5042808;28;20018;-81
2023/11/07 08:45:21;;;;;;;2.85;0.80;;;14.60;89.10;;;;;;5041876;28;20063;-81
2023/11/07 08:47:51;;;;;;;1.08;0.60;;;14.60;89.20;;;;;;5042488;28;20026;-81
2023/11/07 08:50:18;;;;;;;1.87;0.70;;;14.60;89.20;;;;;;5023380;28;20449;-81
2023/11/07 08:52:44;;;;;;;1.30;0.68;;;14.60;89.30;;;;;;5022579;28;20033;-81
2023/11/07 08:55:13;;;;;;;0.90;0.50;;;14.50;89.30;;;;;;5040751;28;20032;-81
2023/11/07 08:57:39;;;;;;;1.13;0.40;;;14.60;89.40;;;;;;5041092;28;20029;-81
2023/11/07 09:00:07;;;;;;;1.08;0.52;;;14.50;89.30;;;;;;5021923;28;20072;-81
2023/11/07 09:02:33;;;;;;;1.23;0.50;;;14.50;89.30;;;;;;5039647;28;20017;-81
2023/11/07 09:04:59;;;;;;;0.60;0.40;;;14.60;89.30;;;;;;5021708;28;20089;-81
2023/11/07 09:07:25;;;;;;;3.38;0.60;;;14.60;89.40;;;;;;5039790;28;20025;-81
2023/11/07 09:09:50;;;;;;;1.33;0.50;;;14.60;89.40;;;;;;5039034;28;20480;-81
2023/11/07 09:12:16;;;;;;;1.50;0.70;;;14.60;89.30;;;;;;5021353;28;20108;-81
2023/11/07 09:14:41;;;;;;;2.00;0.60;;;14.60;89.30;;;;;;5020747;28;20487;-81
2023/11/07 09:17:07;;;;;;;0.93;0.57;;;14.60;89.30;;;;;;5020629;28;20026;-81
2023/11/07 09:19:32;;;;;;;0.95;0.50;;;14.60;89.40;;;;;;5020213;28;20392;-81
2023/11/07 09:21:58;;;;;;;1.13;0.60;;;14.60;89.50;;;;;;5038579;28;20056;-81
2023/11/07 09:24:24;;;;;;;0.93;0.60;;;14.50;89.50;;;;;;5019506;28;20454;-81
2023/11/07 09:26:49;;;;;;;1.92;0.50;;;14.60;89.70;;;;;;5019786;28;20034;-81
2023/11/07 09:29:16;;;;;;;1.17;0.50;;;14.60;89.60;;;;;;5018991;28;20026;-81
2023/11/07 09:31:42;;;;;;;1.05;0.50;;;14.50;89.70;;;;;;5038058;28;20022;-81
2023/11/07 09:34:08;;;;;;;2.75;0.60;;;14.50;89.70;;;;;;5037794;28;20029;-81
2023/11/07 09:36:36;;;;;;;1.67;0.60;;;14.50;89.70;;;;;;5036934;28;20014;-81
2023/11/07 09:39:02;;;;;;;0.80;0.57;;;14.50;89.80;;;;;;5035999;28;20070;-80
2023/11/07 09:41:27;;;;;;;0.52;0.35;;;14.50;89.70;;;;;;5018445;28;20431;-80
2023/11/07 09:43:53;;;;;;;1.48;0.45;;;14.50;89.90;;;;;;5017639;28;20053;-81
2023/11/07 09:46:21;;;;;;;1.48;0.50;;;14.50;89.90;;;;;;5017739;28;20025;-81
2023/11/07 09:48:47;;;;;;;0.88;0.45;;;14.50;89.90;;;;;;5017509;28;20033;-81
2023/11/07 09:51:14;;;;;;;0.43;0.40;;;14.50;90.00;;;;;;5035052;28;20038;-81
2023/11/07 09:53:44;;;;;;;1.58;0.50;;;14.50;90.00;;;;;;5042026;23;20144;-81
2023/11/07 09:56:13;;;;;;;1.38;0.60;;;14.50;89.90;;;;;;5032444;28;20030;-82
2023/11/07 09:58:45;;;;;;;1.08;0.55;;;14.50;89.80;;;;;;5036022;28;20024;-81
2023/11/07 10:01:11;;;;;;;;;;;14.50;89.60;;;;;;5036609;28;20036;-83
2023/11/07 10:03:39;;;;;;;0.70;0.40;;;14.50;89.50;;;;;;5028849;28;20000;-83
2023/11/07 10:06:06;;;;;;;1.30;0.50;;;14.60;89.50;;;;;;5017767;28;20064;-84
2023/11/07 10:08:32;;;;;;;1.23;0.50;;;14.60;89.40;;;;;;5017642;28;20377;-83
2023/11/07 10:11:27;;;;;;;1.02;0.43;;;14.60;89.40;;;;;;5017236;28;20068;-83
2023/11/07 10:13:59;;;;;;;0.52;0.32;;;14.60;89.50;;;;;;5012035;28;20476;-82
2023/11/07 10:16:41;;;;;;;3.20;0.80;;;14.50;89.50;;;;;;5016371;28;20022;-82
2023/11/07 10:19:12;;;;;;;2.70;0.73;;;14.60;89.60;;;;;;5015873;28;20022;-83
2023/11/07 10:21:37;;;;;;;1.25;0.60;;;14.50;89.60;;;;;;5017404;28;20107;-83
2023/11/07 10:24:04;;;;;;;2.03;0.88;;;14.50;89.80;;;;;;5015890;28;20062;-83
2023/11/07 10:26:30;;;;;;;1.05;0.55;;;14.50;89.90;;;;;;5015971;28;20022;-82
2023/11/07 10:29:15;;;;;;;0.93;0.52;;;14.50;89.90;;;;;;5015755;28;20025;-82
2023/11/07 10:31:44;;;;;;;0.93;0.50;;;14.50;89.90;;;;;;5015905;28;20127;-82
2023/11/07 10:34:17;;;;;;;1.00;0.57;;;14.50;90.00;;;;;;5015780;28;20041;-83
2023/11/07 10:36:44;;;;;;;0.95;0.60;;;14.50;90.00;;;;;;5015540;28;20018;-82
2023/11/07 10:39:17;;;;;;;0.88;0.40;;;14.50;90.00;;;;;;5015329;28;20083;-82
2023/11/07 10:41:44;;;;;;;1.90;0.40;;;14.40;90.00;;;;;;5017347;28;20025;-82
2023/11/07 10:44:28;;;;;;;0.75;0.50;;;14.50;90.00;;;;;;5015341;28;20175;-82
2023/11/07 10:46:57;;;;;;;0.80;0.40;;;14.50;90.00;;;;;;5015328;28;20022;-82
2023/11/07 10:49:23;;;;;;;0.98;0.57;;;14.50;90.00;;;;;;5015169;28;20030;-81
2023/11/07 10:51:49;;;;;;;0.70;0.50;;;14.50;90.00;;;;;;5015119;28;20033;-82
2023/11/07 10:54:19;;;;;;;1.52;0.50;;;14.50;90.00;;;;;;5016636;28;20033;-82
2023/11/07 10:56:46;;;;;;;1.05;0.52;;;14.50;90.00;;;;;;5015351;28;20510;-82
2023/11/07 10:59:24;;;;;;;0.68;0.50;;;14.50;90.00;;;;;;5014788;28;20036;-83
2023/11/07 11:01:51;;;;;;;0.70;0.40;;;14.50;90.00;;;;;;5015443;28;20443;-82
2023/11/07 11:04:25;;;;;;;1.23;0.50;;;14.50;90.00;;;;;;5015339;28;20033;-82
2023/11/07 11:06:52;;;;;;;1.15;0.50;;;14.50;90.00;;;;;;5015013;28;20026;-82
2023/11/07 11:09:20;;;;;;;0.93;0.52;;;14.50;90.00;;;;;;5013824;28;20060;-82
2023/11/07 11:11:50;;;;;;;0.65;0.38;;;14.50;90.00;;;;;;5016381;28;20377;-83
2023/11/07 11:14:16;;;;;;;2.13;0.52;;;14.50;90.00;;;;;;5014950;28;20447;-82
2023/11/07 11:16:43;;;;;;;1.00;0.40;;;14.60;90.00;;;;;;5016090;28;20049;-82
2023/11/07 11:19:31;;;;;;;2.25;0.52;;;14.60;89.90;;;;;;5014483;28;20049;-82
2023/11/07 11:22:24;;;;;;;1.00;0.47;;;14.70;89.70;;;;;;5016391;28;20025;-81
2023/11/07 11:25:10;;;;;;;1.00;0.50;;;14.70;89.50;;;;;;5011469;28;20049;-83
2023/11/07 11:28:00;;;;;;;0.80;0.47;;;14.70;89.30;;;;;;5014411;28;20443;-82
2023/11/07 11:30:31;;;;;;;1.83;0.40;;;14.70;89.20;;;;;;5014404;28;20596;-82
2023/11/07 11:33:12;;;;;;;0.33;0.33;;;14.70;89.10;;;;;;5014286;28;20409;-80
2023/11/07 11:35:40;;;;;;;0.57;0.40;;;14.70;89.20;;;;;;5014450;28;20080;-83
2023/11/07 11:38:15;;;;;;;0.40;0.40;;;14.70;89.30;;;;;;5014377;28;20427;-82
2023/11/07 11:40:56;;;;;;;0.75;0.40;;;14.70;89.30;;;;;;5014242;28;20022;-83
2023/11/07 11:43:24;;;;;;;1.15;0.60;;;14.60;89.40;;;;;;5014201;28;20084;-82
2023/11/07 11:45:51;;;;;;;1.33;0.50;;;14.60;89.60;;;;;;5014245;28;20048;-82
2023/11/07 11:48:19;;;;;;;0.85;0.50;;;14.60;89.70;;;;;;5013847;28;20022;-80
2023/11/07 11:51:29;;;;;;;0.75;0.40;;;14.60;89.70;;;;;;5013911;28;20512;-81
2023/11/07 11:53:55;;;;;;;0.75;0.40;;;14.60;89.90;;;;;;5014014;28;20038;-81
2023/11/07 11:56:21;;;;;;;1.52;0.50;;;14.50;89.90;;;;;;5015829;28;20026;-83
2023/11/07 11:59:06;;;;;;;2.15;0.50;;;14.50;90.00;;;;;;5013725;28;20026;-82
2023/11/07 12:01:56;;;;;;;0.68;0.47;;;14.50;90.00;;;;;;5013874;28;20120;-81
2023/11/07 12:04:29;;;;;;;0.70;0.50;;;14.50;90.00;;;;;;5013748;28;20108;-82
2023/11/07 12:07:24;;;;;;;0.90;0.52;;;14.50;90.00;;;;;;5013757;28;20053;-82
2023/11/07 12:09:53;;;;;;;1.50;0.47;;;14.50;90.00;;;;;;5013576;28;20389;-82
2023/11/07 12:12:19;;;;;;;0.63;0.40;;;14.50;90.00;;;;;;5014908;28;20113;-82
2023/11/07 12:14:49;;;;;;;0.93;0.38;;;14.50;90.00;;;;;;5013694;28;20053;-82
2023/11/07 12:17:14;;;;;;;0.98;0.40;;;14.50;90.00;;;;;;5013759;28;20022;-82
2023/11/07 12:19:43;;;;;;;0.88;0.50;;;14.60;90.10;;;;;;5014630;28;20026;-82
2023/11/07 12:22:09;;;;;;;0.52;0.30;;;14.60;90.10;;;;;;5013868;28;20069;-82
2023/11/07 12:24:35;;;;;;;0.55;0.40;;;14.50;90.00;;;;;;5015079;28;20033;-81
2023/11/07 12:27:01;;;;;;;0.85;0.40;;;14.60;90.00;;;;;;5013790;28;20029;-81
2023/11/07 12:29:33;;;;;;;1.27;0.55;;;14.60;90.00;;;;;;5013429;28;20432;-82
2023/11/07 12:32:00;;;;;;;0.50;0.32;;;14.60;89.90;;;;;;5013341;28;20037;-83
2023/11/07 12:34:35;;;;;;;2.17;0.40;;;14.60;89.70;;;;;;5014995;28;20018;-83
2023/11/07 12:37:07;;;;;;;0.38;0.30;;;14.70;89.60;;;;;;5013106;28;20072;-81
2023/11/07 12:39:34;;;;;;;0.57;0.50;;;14.70;89.50;;;;;;5012843;28;20033;-82
2023/11/07 12:42:00;;;;;;;0.30;0.30;;;14.70;89.50;;;;;;5013503;28;20056;-82
2023/11/07 12:44:27;;;;;;;0.73;0.40;;;14.70;89.40;;;;;;5012945;28;20419;-82
2023/11/07 12:46:53;;;;;;;0.30;0.30;;;14.70;89.30;;;;;;5014717;28;20419;-82
2023/11/07 12:49:19;;;;;;;0.65;0.50;;;14.80;89.30;;;;;;5013081;28;20026;-82
2023/11/07 12:51:46;;;;;;;0.60;0.50;;;14.80;89.30;;;;;;5014213;28;20373;-82